Home > Products > Valid Products > TAF

000
FTUS46 KSEW 042103 AAA
TAFHQM
TAF AMD
KHQM 042103Z 0421/0518 32007KT P6SM OVC025
     FM042300 32010KT P6SM BKN025 BKN080
     FM050600 33006KT P6SM BKN015 BKN050
     FM051700 33006KT P6SM SCT020 BKN050=



000
FTUS46 KSEW 042103 AAA
TAFCLM
TAF AMD
KCLM 042103Z 0421/0518 VRB03KT P6SM SCT025 OVC045
      TEMPO 0421/0424 BKN025 OVC045
     FM050000 30010KT P6SM SCT025 BKN050
      TEMPO 0512/0516 BKN025 OVC050=



000
FTUS46 KSEW 042101 AAB
TAFSEA
TAF AMD
KSEA 042101Z 0421/0524 36010KT P6SM SCT025 OVC080
     FM050500 02006KT P6SM SCT025 BKN050
      TEMPO 0512/0516 BKN025 OVC050
     FM052100 33007KT P6SM SCT050=



000
FTUS46 KSEW 041904 AAA
TAFPAE
TAF AMD
KPAE 041904Z 0419/0518 35008KT P6SM SCT015 OVC040
      TEMPO 0419/0421 BKN015 OVC030
     FM050500 02006KT P6SM SCT025 BKN050
      TEMPO 0512/0516 BKN025 OVC050=



000
FTUS46 KSEW 041904 AAA
TAFPAE
TAF AMD
KPAE 041904Z 0419/0518 35008KT P6SM SCT015 OVC040
      TEMPO 0419/0421 BKN015 OVC030
     FM050500 02006KT P6SM SCT025 BKN050
      TEMPO 0512/0516 BKN025 OVC050=



000
FTUS46 KSEW 041841 AAA
TAFSEA
TAF AMD
KSEA 041841Z 0419/0524 36010KT P6SM OVC010
     FM042000 36010KT P6SM BKN015 OVC040
     FM042200 36010KT P6SM SCT020 BKN050
     FM050500 02006KT P6SM SCT025 BKN050
      TEMPO 0512/0516 BKN025 OVC050=



000
FTUS46 KSEW 041841 AAA
TAFSEA
TAF AMD
KSEA 041841Z 0419/0524 36010KT P6SM OVC010
     FM042000 36010KT P6SM BKN015 OVC040
     FM042200 36010KT P6SM SCT020 BKN050
     FM050500 02006KT P6SM SCT025 BKN050
      TEMPO 0512/0516 BKN025 OVC050=



000
FTUS46 KSEW 041729
TAFBFI
TAF
KBFI 041729Z 0418/0518 33007KT P6SM SCT015 OVC040
      TEMPO 0418/0421 BKN015 OVC030
     FM050500 VRB03KT P6SM SCT025 BKN050
      TEMPO 0512/0516 BKN025 OVC050=



000
FTUS46 KSEW 041729
TAFPAE
TAF
KPAE 041729Z 0418/0518 34006KT P6SM BKN008 OVC030
     FM042000 34006KT P6SM SCT015 OVC040
      TEMPO 0420/0424 BKN015 OVC030
     FM050500 02006KT P6SM SCT025 BKN050
      TEMPO 0512/0516 BKN025 OVC050=



000
FTUS46 KSEW 041729
TAFSEA
TAF
KSEA 041729Z 0418/0524 36010KT P6SM SCT015 OVC040
      TEMPO 0418/0421 BKN015 OVC030
     FM050500 02006KT P6SM SCT025 BKN050
      TEMPO 0512/0516 BKN025 OVC050=



000
FTUS46 KSEW 041729
TAFBLI
TAF
KBLI 041729Z 0418/0518 30006KT P6SM SCT012 OVC050
      TEMPO 0418/0421 5SM -RA BR BKN012 OVC040
     FM050500 VRB03KT P6SM SCT025 BKN050
      TEMPO 0512/0516 BKN025 OVC050=



000
FTUS46 KSEW 041729
TAFCLM
TAF
KCLM 041729Z 0418/0518 VRB03KT P6SM SCT025 OVC060
     FM050000 30010KT P6SM SCT025 BKN050
      TEMPO 0512/0516 BKN025 OVC050=



000
FTUS46 KSEW 041729
TAFHQM
TAF
KHQM 041729Z 0418/0518 33008KT P6SM SCT015 OVC040
      TEMPO 0418/0421 5SM BR BKN015 OVC030
     FM050600 33006KT P6SM BKN015 BKN050
     FM051700 33006KT P6SM SCT020 BKN050=



000
FTUS46 KSEW 041729
TAFOLM
TAF
KOLM 041729Z 0418/0518 02007KT P6SM SCT020 OVC040
      TEMPO 0418/0421 BKN020 OVC030
     FM050500 VRB03KT P6SM SCT025 BKN050
     FM051000 00000KT P6SM BKN020 OVC040
     FM051700 36006KT P6SM SCT025 BKN050=



000
FTUS46 KSEW 041525 AAC
TAFPAE
TAF AMD
KPAE 041525Z 0415/0512 34004KT 4SM -RA BR OVC004
     FM041700 34008KT P6SM VCSH SCT005 BKN015 OVC040
     FM042000 34008KT P6SM SCT020 BKN050
     FM050000 34006KT P6SM SCT040 BKN080 OVC200
     FM051000 01004KT P6SM BKN040 OVC070=



000
FTUS46 KSEW 041525 AAC
TAFPAE
TAF AMD
KPAE 041525Z 0415/0512 34004KT 4SM -RA BR OVC004
     FM041700 34008KT P6SM VCSH SCT005 BKN015 OVC040
     FM042000 34008KT P6SM SCT020 BKN050
     FM050000 34006KT P6SM SCT040 BKN080 OVC200
     FM051000 01004KT P6SM BKN040 OVC070=



000
FTUS46 KSEW 041429 AAC
TAFHQM
TAF AMD
KHQM 041429Z 0414/0512 VRB04KT P6SM SCT020 OVC070
      TEMPO 0415/0418 -SHRA BKN020 OVC050
     FM041800 26010KT P6SM SCT030 BKN050
     FM050600 29006KT P6SM SCT040 BKN080 OVC200=



000
FTUS46 KSEW 041429 AAC
TAFHQM
TAF AMD
KHQM 041429Z 0414/0512 VRB04KT P6SM SCT020 OVC070
      TEMPO 0415/0418 -SHRA BKN020 OVC050
     FM041800 26010KT P6SM SCT030 BKN050
     FM050600 29006KT P6SM SCT040 BKN080 OVC200=



000
FTUS46 KSEW 041348 AAB
TAFHQM
TAF AMD
KHQM 041348Z 0414/0512 31009KT P6SM SCT020 OVC070
     FM041800 26010KT P6SM SCT030 BKN050
     FM050600 29006KT P6SM SCT040 BKN080 OVC200=



000
FTUS46 KSEW 041346 AAA
TAFOLM
TAF AMD
KOLM 041346Z 0414/0512 02005KT P6SM SCT020 OVC040
      TEMPO 0414/0417 BKN020 OVC040
     FM041900 35007KT P6SM SCT025 BKN050
     FM050000 35006KT P6SM SCT040 BKN080 OVC200
     FM051000 VRB03KT P6SM BKN040 OVC070=



000
FTUS46 KSEW 041346 AAA
TAFOLM
TAF AMD
KOLM 041346Z 0414/0512 02005KT P6SM SCT020 OVC040
      TEMPO 0414/0417 BKN020 OVC040
     FM041900 35007KT P6SM SCT025 BKN050
     FM050000 35006KT P6SM SCT040 BKN080 OVC200
     FM051000 VRB03KT P6SM BKN040 OVC070=



000
FTUS46 KSEW 041345 AAA
TAFCLM
TAF AMD
KCLM 041345Z 0414/0512 29005KT P6SM VCSH FEW028 OVC050
      TEMPO 0414/0418 -SHRA
     FM041800 33009KT P6SM VCSH SCT025 BKN050
     FM050000 29010KT P6SM SCT040 BKN080 OVC200=



000
FTUS46 KSEW 041343 AAA
TAFBLI
TAF AMD
KBLI 041343Z 0414/0512 31006KT P6SM VCSH BKN015 OVC040
      TEMPO 0415/0418 -SHRA
     FM041900 23007KT P6SM SCT025 BKN050
     FM050000 27006KT P6SM SCT040 BKN080 OVC200
     FM051000 00000KT P6SM BKN040 OVC070=



000
FTUS46 KSEW 041343 AAA
TAFBLI
TAF AMD
KBLI 041343Z 0414/0512 31006KT P6SM VCSH BKN015 OVC040
      TEMPO 0415/0418 -SHRA
     FM041900 23007KT P6SM SCT025 BKN050
     FM050000 27006KT P6SM SCT040 BKN080 OVC200
     FM051000 00000KT P6SM BKN040 OVC070=



000
FTUS46 KSEW 041342 AAB
TAFPAE
TAF AMD
KPAE 041342Z 0414/0512 35005KT P6SM VCSH OVC020
      TEMPO 0414/0418 -SHRA
     FM041900 33007KT P6SM SCT025 BKN050
     FM050000 35006KT P6SM SCT040 BKN080 OVC200
     FM051000 01004KT P6SM BKN040 OVC070=



000
FTUS46 KSEW 041342 AAB
TAFPAE
TAF AMD
KPAE 041342Z 0414/0512 35005KT P6SM VCSH OVC020
      TEMPO 0414/0418 -SHRA
     FM041900 33007KT P6SM SCT025 BKN050
     FM050000 35006KT P6SM SCT040 BKN080 OVC200
     FM051000 01004KT P6SM BKN040 OVC070=



000
FTUS46 KSEW 041340 AAA
TAFBFI
TAF AMD
KBFI 041340Z 0414/0512 VRB04KT P6SM VCSH FEW022 OVC040
     FM041800 32007KT P6SM SCT025 BKN050
     FM050000 32006KT P6SM SCT040 BKN080 OVC200
     FM051000 00000KT P6SM BKN040 OVC070=



000
FTUS46 KSEW 041340 AAA
TAFBFI
TAF AMD
KBFI 041340Z 0414/0512 VRB04KT P6SM VCSH FEW022 OVC040
     FM041800 32007KT P6SM SCT025 BKN050
     FM050000 32006KT P6SM SCT040 BKN080 OVC200
     FM051000 00000KT P6SM BKN040 OVC070=



000
FTUS46 KSEW 041339 AAA
TAFSEA
TAF AMD
KSEA 041339Z 0414/0518 02009KT P6SM FEW018 BKN035 OVC070
      TEMPO 0415/0418 BKN018 OVC035
     FM041900 35009KT P6SM SCT025 BKN050
     FM050000 35006KT P6SM SCT040 BKN080 OVC200
     FM051000 02005KT P6SM BKN040 OVC070=



000
FTUS46 KSEW 041339 AAA
TAFSEA
TAF AMD
KSEA 041339Z 0414/0518 02009KT P6SM FEW018 BKN035 OVC070
      TEMPO 0415/0418 BKN018 OVC035
     FM041900 35009KT P6SM SCT025 BKN050
     FM050000 35006KT P6SM SCT040 BKN080 OVC200
     FM051000 02005KT P6SM BKN040 OVC070=



000
FTUS46 KSEW 041202 AAA
TAFHQM
TAF AMD
KHQM 041202Z 0412/0512 31009KT P6SM -SHRA SCT020 OVC070
      TEMPO 0412/0415 5SM -SHRA BR
     FM041500 28007KT P6SM VCSH BKN020 OVC050
      TEMPO 0415/0418 -SHRA
     FM041800 26010KT P6SM SCT030 BKN050
     FM050600 29006KT P6SM SCT040 BKN080 OVC200=



000
FTUS46 KSEW 041202 AAA
TAFHQM
TAF AMD
KHQM 041202Z 0412/0512 31009KT P6SM -SHRA SCT020 OVC070
      TEMPO 0412/0415 5SM -SHRA BR
     FM041500 28007KT P6SM VCSH BKN020 OVC050
      TEMPO 0415/0418 -SHRA
     FM041800 26010KT P6SM SCT030 BKN050
     FM050600 29006KT P6SM SCT040 BKN080 OVC200=



000
FTUS46 KSEW 041144 AAA
TAFPAE
TAF AMD
KPAE 041144Z 0412/0512 01003KT P6SM SCT025 OVC100
      TEMPO 0412/0414 BKN025 OVC100
     FM041400 36003KT P6SM BKN025 OVC060
     FM041900 33007KT P6SM SCT025 BKN050
     FM050000 35006KT P6SM SCT040 BKN080 OVC200
     FM051000 01004KT P6SM BKN040 OVC070=



000
FTUS46 KSEW 041125
TAFHQM
TAF
KHQM 041125Z 0412/0512 30004KT P6SM SCT020 OVC080
      TEMPO 0413/0417 BKN020
     FM041700 28010KT P6SM SCT030 BKN050
     FM050600 29006KT P6SM SCT040 BKN080 OVC200=



000
FTUS46 KSEW 041125
TAFOLM
TAF
KOLM 041125Z 0412/0512 00000KT P6SM -RA VCSH OVC035
     FM041300 VRB04KT P6SM SCT015 OVC040
      TEMPO 0413/0416 BKN015 OVC040
     FM041900 22007KT P6SM SCT025 BKN050
     FM050000 35006KT P6SM SCT040 BKN080 OVC200
     FM051000 VRB03KT P6SM BKN040 OVC070=



000
FTUS46 KSEW 041125
TAFPAE
TAF
KPAE 041125Z 0412/0512 01003KT P6SM VCSH FEW035 SCT080 BKN100
     FM041300 VRB04KT P6SM SCT015 OVC040
      TEMPO 0413/0416 BKN015 OVC040
     FM041900 33007KT P6SM SCT025 BKN050
     FM050000 35006KT P6SM SCT040 BKN080 OVC200
     FM051000 01004KT P6SM BKN040 OVC070=



000
FTUS46 KSEW 041125
TAFBFI
TAF
KBFI 041125Z 0412/0512 05005KT P6SM VCSH BKN060 OVC100
     FM041300 VRB04KT P6SM SCT018 OVC040
      TEMPO 0413/0416 BKN018 OVC040
     FM041900 33007KT P6SM SCT025 BKN050
     FM050000 32006KT P6SM SCT040 BKN080 OVC200
     FM051000 00000KT P6SM BKN040 OVC070=



000
FTUS46 KSEW 041125
TAFBLI
TAF
KBLI 041125Z 0412/0512 29004KT P6SM OVC011
      TEMPO 0415/0419 SCT013 OVC040
     FM041900 23007KT P6SM SCT025 BKN050
     FM050000 27006KT P6SM SCT040 BKN080 OVC200
     FM051000 00000KT P6SM BKN040 OVC070=



000
FTUS46 KSEW 041125
TAFSEA
TAF
KSEA 041125Z 0412/0518 05007KT P6SM BKN040 OVC060
     FM041300 VRB04KT P6SM SCT015 OVC040
      TEMPO 0413/0416 BKN015 OVC040
     FM041900 33007KT P6SM SCT025 BKN050
     FM050000 35006KT P6SM SCT040 BKN080 OVC200
     FM051000 02005KT P6SM BKN040 OVC070=



000
FTUS46 KSEW 041125
TAFCLM
TAF
KCLM 041125Z 0412/0512 28005KT P6SM SCT020 OVC045
      TEMPO 0413/0416 BKN020 OVC045
     FM041800 28006KT P6SM VCSH SCT025 BKN050
     FM050000 29010KT P6SM SCT040 BKN080 OVC200=



000
FTUS46 KSEW 041125
TAFBLI
TAF
KBLI 041125Z 0412/0512 29004KT P6SM OVC011
      TEMPO 0415/0419 SCT013 OVC040
     FM041900 23007KT P6SM SCT025 BKN050
     FM050000 27006KT P6SM SCT040 BKN080 OVC200
     FM051000 00000KT P6SM BKN040 OVC070=



000
FTUS46 KSEW 041125
TAFSEA
TAF
KSEA 041125Z 0412/0518 05007KT P6SM BKN040 OVC060
     FM041300 VRB04KT P6SM SCT015 OVC040
      TEMPO 0413/0416 BKN015 OVC040
     FM041900 33007KT P6SM SCT025 BKN050
     FM050000 35006KT P6SM SCT040 BKN080 OVC200
     FM051000 02005KT P6SM BKN040 OVC070=



000
FTUS46 KSEW 041125
TAFBFI
TAF
KBFI 041125Z 0412/0512 05005KT P6SM VCSH BKN060 OVC100
     FM041300 VRB04KT P6SM SCT018 OVC040
      TEMPO 0413/0416 BKN018 OVC040
     FM041900 33007KT P6SM SCT025 BKN050
     FM050000 32006KT P6SM SCT040 BKN080 OVC200
     FM051000 00000KT P6SM BKN040 OVC070=



000
FTUS46 KSEW 041125
TAFPAE
TAF
KPAE 041125Z 0412/0512 01003KT P6SM VCSH FEW035 SCT080 BKN100
     FM041300 VRB04KT P6SM SCT015 OVC040
      TEMPO 0413/0416 BKN015 OVC040
     FM041900 33007KT P6SM SCT025 BKN050
     FM050000 35006KT P6SM SCT040 BKN080 OVC200
     FM051000 01004KT P6SM BKN040 OVC070=



000
FTUS46 KSEW 041125
TAFOLM
TAF
KOLM 041125Z 0412/0512 00000KT P6SM -RA VCSH OVC035
     FM041300 VRB04KT P6SM SCT015 OVC040
      TEMPO 0413/0416 BKN015 OVC040
     FM041900 22007KT P6SM SCT025 BKN050
     FM050000 35006KT P6SM SCT040 BKN080 OVC200
     FM051000 VRB03KT P6SM BKN040 OVC070=



000
FTUS46 KSEW 041125
TAFHQM
TAF
KHQM 041125Z 0412/0512 30004KT P6SM SCT020 OVC080
      TEMPO 0413/0417 BKN020
     FM041700 28010KT P6SM SCT030 BKN050
     FM050600 29006KT P6SM SCT040 BKN080 OVC200=



000
FTUS46 KSEW 041125
TAFCLM
TAF
KCLM 041125Z 0412/0512 28005KT P6SM SCT020 OVC045
      TEMPO 0413/0416 BKN020 OVC045
     FM041800 28006KT P6SM VCSH SCT025 BKN050
     FM050000 29010KT P6SM SCT040 BKN080 OVC200=



000
FTUS46 KSEW 040900 AAA
TAFSEA
TAF AMD
KSEA 040900Z 0409/0512 03010KT P6SM OVC040
     FM041200 VRB04KT P6SM SCT015 OVC040
      TEMPO 0412/0416 -SHRA BKN015 OVC040
     FM041900 33007KT P6SM SCT025 BKN050
     FM050000 35006KT P6SM SCT040 BKN080 OVC200=



000
FTUS46 KSEW 040900 AAA
TAFSEA
TAF AMD
KSEA 040900Z 0409/0512 03010KT P6SM OVC040
     FM041200 VRB04KT P6SM SCT015 OVC040
      TEMPO 0412/0416 -SHRA BKN015 OVC040
     FM041900 33007KT P6SM SCT025 BKN050
     FM050000 35006KT P6SM SCT040 BKN080 OVC200=



000
FTUS46 KSEW 040520
TAFBLI
TAF
KBLI 040520Z 0406/0506 18005KT P6SM SCT045 BKN120
     FM040800 23007KT P6SM VCSH BKN045 OVC120
     FM041200 18007KT P6SM SCT015 OVC040
     FM041900 23007KT P6SM SCT025 BKN050
     FM050000 27006KT P6SM SCT040 BKN080 OVC200=



000
FTUS46 KSEW 040520
TAFSEA
TAF
KSEA 040520Z 0406/0512 03009KT P6SM SCT045 BKN110 OVC200
     FM040800 36007KT P6SM VCSH BKN045 OVC120
     FM041200 VRB04KT P6SM SCT015 OVC040
      TEMPO 0412/0416 -SHRA BKN015 OVC040
     FM041900 33007KT P6SM SCT025 BKN050
     FM050000 35006KT P6SM SCT040 BKN080 OVC200=



000
FTUS46 KSEW 040520
TAFPAE
TAF
KPAE 040520Z 0406/0506 02005KT P6SM SCT045 BKN120
     FM040800 33007KT P6SM VCSH BKN045 OVC120
     FM041200 VRB04KT P6SM SCT015 OVC040
      TEMPO 0412/0416 -SHRA BKN015 OVC040
     FM041900 33007KT P6SM SCT025 BKN050
     FM050000 35006KT P6SM SCT040 BKN080 OVC200=



000
FTUS46 KSEW 040520
TAFBFI
TAF
KBFI 040520Z 0406/0506 VRB04KT P6SM SCT050 BKN120 OVC200
     FM040800 36007KT P6SM VCSH BKN050 OVC120
     FM041200 VRB04KT P6SM SCT018 OVC040
      TEMPO 0412/0416 -SHRA BKN018 OVC040
     FM041900 33007KT P6SM SCT025 BKN050
     FM050000 32006KT P6SM SCT040 BKN080 OVC200=



000
FTUS46 KSEW 040520
TAFCLM
TAF
KCLM 040520Z 0406/0506 28015KT P6SM SCT020 BKN110 OVC200
     FM040800 28015KT P6SM VCSH BKN013 OVC080
     FM041700 28006KT P6SM VCSH BKN022 BKN050
     FM050000 29010KT P6SM SCT040 BKN080 OVC200=



000
FTUS46 KSEW 040520
TAFHQM
TAF
KHQM 040520Z 0406/0506 29006KT P6SM SCT025 OVC120
     FM040800 27010KT P6SM BKN025 OVC050
     FM041700 30008KT P6SM SCT030 BKN050=



000
FTUS46 KSEW 040520
TAFOLM
TAF
KOLM 040520Z 0406/0506 19005KT P6SM SCT040 BKN090
     FM040800 22007KT P6SM VCSH BKN040 OVC120
     FM041200 VRB04KT P6SM BKN015 OVC040
     FM041900 22007KT P6SM SCT025 BKN050
     FM050000 35006KT P6SM SCT040 BKN080 OVC200=



000
FTUS46 KSEW 040300 AAA
TAFSEA
TAF AMD
KSEA 040300Z 0403/0506 27003KT P6SM FEW050 SCT150 OVC200
     FM040600 36007KT P6SM VCSH BKN050 OVC120
     FM041200 VRB04KT P6SM SCT015 OVC040
      TEMPO 0412/0416 -SHRA BKN015 OVC040
     FM041900 33007KT P6SM SCT025 BKN050=



000
FTUS46 KSEW 032320
TAFBLI
TAF
KBLI 032320Z 0400/0424 23007KT P6SM SCT060 SCT120 BKN250
     FM040300 23007KT P6SM SCT060 BKN120 BKN200
     FM040600 23007KT P6SM VCSH BKN050 OVC120
     FM041200 18007KT P6SM SCT015 OVC040
     FM041900 23007KT P6SM SCT025 BKN050=



000
FTUS46 KSEW 032320
TAFSEA
TAF
KSEA 032320Z 0400/0506 VRB04KT P6SM SCT060 SCT120 BKN250
     FM040300 33007KT P6SM SCT060 BKN120 BKN200
     FM040600 36007KT P6SM VCSH BKN050 OVC120
     FM041200 VRB04KT P6SM SCT015 OVC040
      TEMPO 0412/0416 -SHRA BKN015 OVC040
     FM041900 33007KT P6SM SCT025 BKN050=



000
FTUS46 KSEW 032320
TAFOLM
TAF
KOLM 032320Z 0400/0424 22007KT P6SM SCT060 BKN120 BKN200
     FM040600 22007KT P6SM VCSH BKN050 OVC120
     FM041200 VRB04KT P6SM BKN015 OVC040
     FM041900 22007KT P6SM SCT025 BKN050=



000
FTUS46 KSEW 032320
TAFSEA
TAF
KSEA 032320Z 0400/0506 VRB04KT P6SM SCT060 SCT120 BKN250
     FM040300 33007KT P6SM SCT060 BKN120 BKN200
     FM040600 36007KT P6SM VCSH BKN050 OVC120
     FM041200 VRB04KT P6SM SCT015 OVC040
      TEMPO 0412/0416 -SHRA BKN015 OVC040
     FM041900 33007KT P6SM SCT025 BKN050=



000
FTUS46 KSEW 032320
TAFBLI
TAF
KBLI 032320Z 0400/0424 23007KT P6SM SCT060 SCT120 BKN250
     FM040300 23007KT P6SM SCT060 BKN120 BKN200
     FM040600 23007KT P6SM VCSH BKN050 OVC120
     FM041200 18007KT P6SM SCT015 OVC040
     FM041900 23007KT P6SM SCT025 BKN050=



000
FTUS46 KSEW 032320
TAFOLM
TAF
KOLM 032320Z 0400/0424 22007KT P6SM SCT060 BKN120 BKN200
     FM040600 22007KT P6SM VCSH BKN050 OVC120
     FM041200 VRB04KT P6SM BKN015 OVC040
     FM041900 22007KT P6SM SCT025 BKN050=



000
FTUS46 KSEW 032320
TAFPAE
TAF
KPAE 032320Z 0400/0424 33010KT P6SM SCT060 BKN120 BKN200
     FM040600 33007KT P6SM VCSH BKN050 OVC120
     FM041200 VRB04KT P6SM SCT015 OVC040
      TEMPO 0412/0416 -SHRA BKN015 OVC040
     FM041900 33007KT P6SM SCT025 BKN050=



000
FTUS46 KSEW 032320
TAFPAE
TAF
KPAE 032320Z 0400/0424 33010KT P6SM SCT060 BKN120 BKN200
     FM040600 33007KT P6SM VCSH BKN050 OVC120
     FM041200 VRB04KT P6SM SCT015 OVC040
      TEMPO 0412/0416 -SHRA BKN015 OVC040
     FM041900 33007KT P6SM SCT025 BKN050=



000
FTUS46 KSEW 032320
TAFBFI
TAF
KBFI 032320Z 0400/0424 VRB04KT P6SM SCT060 SCT120 BKN250
     FM040300 33007KT P6SM SCT060 BKN120 BKN200
     FM040600 36007KT P6SM VCSH BKN050 OVC120
     FM041200 VRB04KT P6SM SCT018 OVC040
      TEMPO 0412/0416 -SHRA BKN018 OVC040
     FM041900 33007KT P6SM SCT025 BKN050=



000
FTUS46 KSEW 032320
TAFHQM
TAF
KHQM 032320Z 0400/0424 25010KT P6SM SCT025 BKN100
      TEMPO 0400/0404 BKN025 OVC080
     FM040400 27010KT P6SM BKN025 OVC050
     FM041700 30008KT P6SM SCT030 BKN050=



000
FTUS46 KSEW 032320
TAFCLM
TAF
KCLM 032320Z 0400/0424 28015KT P6SM BKN013 OVC080
      TEMPO 0400/0404 SCT015 BKN080 BKN200
     FM041700 28006KT P6SM VCSH BKN022 BKN050=



000
FTUS46 KSEW 032320
TAFBFI
TAF
KBFI 032320Z 0400/0424 VRB04KT P6SM SCT060 SCT120 BKN250
     FM040300 33007KT P6SM SCT060 BKN120 BKN200
     FM040600 36007KT P6SM VCSH BKN050 OVC120
     FM041200 VRB04KT P6SM SCT018 OVC040
      TEMPO 0412/0416 -SHRA BKN018 OVC040
     FM041900 33007KT P6SM SCT025 BKN050=



000
FTUS46 KSEW 032320
TAFHQM
TAF
KHQM 032320Z 0400/0424 25010KT P6SM SCT025 BKN100
      TEMPO 0400/0404 BKN025 OVC080
     FM040400 27010KT P6SM BKN025 OVC050
     FM041700 30008KT P6SM SCT030 BKN050=



000
FTUS46 KSEW 032320
TAFCLM
TAF
KCLM 032320Z 0400/0424 28015KT P6SM BKN013 OVC080
      TEMPO 0400/0404 SCT015 BKN080 BKN200
     FM041700 28006KT P6SM VCSH BKN022 BKN050=



000
FTUS46 KSEW 032107 AAB
TAFHQM
TAF AMD
KHQM 032107Z 0321/0418 25010KT P6SM BKN035 OVC090
     FM040600 27010KT P6SM BKN025 OVC050
     FM041700 30008KT P6SM SCT030 BKN050=



000
FTUS46 KSEW 032106 AAA
TAFSEA
TAF AMD
KSEA 032106Z 0321/0424 VRB05KT P6SM SCT060 SCT120 BKN250
     FM040000 33007KT P6SM SCT060 BKN120 BKN200
     FM040600 36007KT P6SM VCSH BKN050 OVC120
     FM041200 VRB04KT P6SM SCT018 OVC040
      TEMPO 0412/0416 -SHRA BKN015 OVC040
     FM041900 33007KT P6SM SCT025 BKN050=



000
FTUS46 KSEW 031817 AAA
TAFHQM
TAF AMD
KHQM 031817Z 0318/0418 24007KT P6SM SCT025 BKN100
      TEMPO 0318/0321 4SM HZ BKN024 OVC080
     FM032100 25010KT P6SM BKN025 OVC040
     FM040600 27010KT P6SM BKN015 OVC030=



000
FTUS46 KSEW 031720
TAFHQM
TAF
KHQM 031720Z 0318/0418 24007KT 5SM BR SCT007 BKN020 OVC050
      TEMPO 0318/0321 3SM BR BKN007 OVC020
     FM032100 25010KT P6SM BKN015 OVC040
     FM040600 27010KT P6SM BKN012 OVC030=



000
FTUS46 KSEW 031720
TAFOLM
TAF
KOLM 031720Z 0318/0418 24007KT P6SM SCT120 BKN200
     FM032200 24007KT P6SM SCT060 BKN120
     FM040600 24007KT P6SM VCSH BKN040 OVC080
     FM041000 VRB04KT P6SM -SHRA BKN018 OVC040
     FM041700 VRB04KT P6SM VCSH BKN022 BKN050=



000
FTUS46 KSEW 031720
TAFCLM
TAF
KCLM 031720Z 0318/0418 30007KT P6SM BKN100 BKN200
     FM032200 28012G20KT P6SM VCSH BKN040 OVC080
     FM040900 28008KT P6SM BKN018 OVC040
     FM041700 28006KT P6SM VCSH BKN022 BKN050=



000
FTUS46 KSEW 031720
TAFBFI
TAF
KBFI 031720Z 0318/0418 VRB04KT P6SM SCT120 BKN200
     FM032200 20005KT P6SM SCT060 BKN120
     FM040600 34007KT P6SM VCSH BKN040 OVC080
     FM041200 VRB04KT P6SM -SHRA BKN022 OVC040
     FM041700 VRB04KT P6SM VCSH BKN025 BKN050=



000
FTUS46 KSEW 031720
TAFSEA
TAF
KSEA 031720Z 0318/0424 24007KT P6SM SCT120 BKN200
     FM032200 24007KT P6SM SCT060 BKN120
     FM040600 34007KT P6SM VCSH BKN040 OVC080
     FM041200 VRB04KT P6SM -SHRA BKN018 OVC040
     FM041700 VRB04KT P6SM VCSH BKN022 BKN050=



000
FTUS46 KSEW 031720
TAFBLI
TAF
KBLI 031720Z 0318/0418 17010KT P6SM SCT120 BKN200
     FM032200 22008KT P6SM SCT060 BKN120
     FM040600 22008KT P6SM BKN040 OVC080
     FM041200 18008KT P6SM VCSH BKN018 OVC040
     FM041700 20006KT P6SM BKN022 BKN050=



000
FTUS46 KSEW 031720
TAFSEA
TAF
KSEA 031720Z 0318/0424 24007KT P6SM SCT120 BKN200
     FM032200 24007KT P6SM SCT060 BKN120
     FM040600 34007KT P6SM VCSH BKN040 OVC080
     FM041200 VRB04KT P6SM -SHRA BKN018 OVC040
     FM041700 VRB04KT P6SM VCSH BKN022 BKN050=



000
FTUS46 KSEW 031720
TAFBFI
TAF
KBFI 031720Z 0318/0418 VRB04KT P6SM SCT120 BKN200
     FM032200 20005KT P6SM SCT060 BKN120
     FM040600 34007KT P6SM VCSH BKN040 OVC080
     FM041200 VRB04KT P6SM -SHRA BKN022 OVC040
     FM041700 VRB04KT P6SM VCSH BKN025 BKN050=



000
FTUS46 KSEW 031720
TAFPAE
TAF
KPAE 031720Z 0318/0418 17007KT P6SM SCT120 BKN200
     FM032200 27007KT P6SM SCT060 BKN120
     FM040300 30010KT P6SM VCSH BKN040 OVC080
     FM041200 VRB04KT P6SM -SHRA BKN015 OVC035
     FM041700 VRB04KT P6SM VCSH BKN020 OVC040=



000
FTUS46 KSEW 031720
TAFPAE
TAF
KPAE 031720Z 0318/0418 17007KT P6SM SCT120 BKN200
     FM032200 27007KT P6SM SCT060 BKN120
     FM040300 30010KT P6SM VCSH BKN040 OVC080
     FM041200 VRB04KT P6SM -SHRA BKN015 OVC035
     FM041700 VRB04KT P6SM VCSH BKN020 OVC040=



000
FTUS46 KSEW 031720
TAFCLM
TAF
KCLM 031720Z 0318/0418 30007KT P6SM BKN100 BKN200
     FM032200 28012G20KT P6SM VCSH BKN040 OVC080
     FM040900 28008KT P6SM BKN018 OVC040
     FM041700 28006KT P6SM VCSH BKN022 BKN050=



000
FTUS46 KSEW 031720
TAFBLI
TAF
KBLI 031720Z 0318/0418 17010KT P6SM SCT120 BKN200
     FM032200 22008KT P6SM SCT060 BKN120
     FM040600 22008KT P6SM BKN040 OVC080
     FM041200 18008KT P6SM VCSH BKN018 OVC040
     FM041700 20006KT P6SM BKN022 BKN050=



000
FTUS46 KSEW 031720
TAFOLM
TAF
KOLM 031720Z 0318/0418 24007KT P6SM SCT120 BKN200
     FM032200 24007KT P6SM SCT060 BKN120
     FM040600 24007KT P6SM VCSH BKN040 OVC080
     FM041000 VRB04KT P6SM -SHRA BKN018 OVC040
     FM041700 VRB04KT P6SM VCSH BKN022 BKN050=



000
FTUS46 KSEW 031720
TAFHQM
TAF
KHQM 031720Z 0318/0418 24007KT 5SM BR SCT007 BKN020 OVC050
      TEMPO 0318/0321 3SM BR BKN007 OVC020
     FM032100 25010KT P6SM BKN015 OVC040
     FM040600 27010KT P6SM BKN012 OVC030=



000
FTUS46 KSEW 031644 AAC
TAFHQM
TAF AMD
KHQM 031644Z 0317/0412 22007KT 4SM BR SCT008 OVC080
      TEMPO 0317/0320 2SM BR BKN008 OVC080
     FM032000 22007KT P6SM BKN012 OVC060
      TEMPO 0321/0401 SCT020 BKN050
     FM040600 27010KT P6SM BKN012 OVC040=



000
FTUS46 KSEW 031644 AAC
TAFHQM
TAF AMD
KHQM 031644Z 0317/0412 22007KT 4SM BR SCT008 OVC080
      TEMPO 0317/0320 2SM BR BKN008 OVC080
     FM032000 22007KT P6SM BKN012 OVC060
      TEMPO 0321/0401 SCT020 BKN050
     FM040600 27010KT P6SM BKN012 OVC040=



000
FTUS46 KSEW 031513 AAB
TAFSEA
TAF AMD
KSEA 031513Z 0315/0418 23004KT P6SM SCT060 BKN120
     FM032200 24010KT P6SM VCSH BKN050 OVC110
     FM040600 34006KT P6SM VCSH BKN040 OVC080
     FM041200 01006KT P6SM OVC018=



000
FTUS46 KSEW 031512 AAB
TAFHQM
TAF AMD
KHQM 031512Z 0315/0412 21005KT 4SM BR SCT005 BKN100
     FM031800 22007KT P6SM BKN015 BKN050
      TEMPO 0321/0401 SCT020 BKN050
     FM040600 30004KT P6SM OVC012=



000
FTUS46 KSEW 031346 AAA
TAFHQM
TAF AMD
KHQM 031346Z 0314/0412 VRB03KT 5SM BR OVC010
      TEMPO 0314/0318 4SM BR
     FM031800 22007KT P6SM BKN015 BKN050
      TEMPO 0321/0401 SCT020 BKN050
     FM040600 30004KT P6SM OVC012=



000
FTUS46 KSEW 031302 AAA
TAFSEA
TAF AMD
KSEA 031302Z 0313/0418 19007KT P6SM SCT100
      TEMPO 0313/0315 BKN100
     FM031800 24007KT P6SM SCT110 BKN220
     FM040000 24010G18KT P6SM VCSH BKN050 OVC110
     FM040600 34006KT P6SM VCSH BKN040 OVC080
     FM041200 01006KT P6SM OVC018=



000
FTUS46 KSEW 031120
TAFOLM
TAF
KOLM 031120Z 0312/0412 20006KT P6SM SCT130
     FM032000 26007KT P6SM SCT130 BKN250
     FM040000 27010G18KT P6SM VCSH BKN050 OVC110
     FM040600 VRB03KT P6SM VCSH BKN040 OVC080
     FM041100 19006KT P6SM OVC015=



000
FTUS46 KSEW 031120
TAFSEA
TAF
KSEA 031120Z 0312/0418 18004KT P6SM SCT120
     FM031800 24007KT P6SM SCT110 BKN220
     FM040000 24010G18KT P6SM VCSH BKN050 OVC110
     FM040600 34006KT P6SM VCSH BKN040 OVC080
     FM041200 01006KT P6SM OVC018=



000
FTUS46 KSEW 031120
TAFBFI
TAF
KBFI 031120Z 0312/0412 13007KT P6SM SCT130
     FM031800 23006KT P6SM SCT110 BKN220
     FM040000 23008KT P6SM VCSH BKN050 OVC110
      TEMPO 0402/0406 32006KT
     FM040600 33006KT P6SM VCSH BKN040 OVC080=



000
FTUS46 KSEW 031120
TAFHQM
TAF
KHQM 031120Z 0312/0412 22004KT P6SM SCT010 OVC090
      TEMPO 0312/0315 5SM BR OVC010
     FM031500 23006KT 5SM BR OVC006
     FM031800 22007KT P6SM BKN015 BKN050
      TEMPO 0321/0401 SCT020 BKN050
     FM040600 30004KT P6SM OVC012=



000
FTUS46 KSEW 031120
TAFBLI
TAF
KBLI 031120Z 0312/0412 17005KT P6SM SCT130
     FM032000 19007KT P6SM SCT130 BKN250
     FM040000 19008KT P6SM BKN070 OVC130
     FM040600 18008KT P6SM VCSH BKN045 OVC080=



000
FTUS46 KSEW 031120
TAFCLM
TAF
KCLM 031120Z 0312/0412 26006KT P6SM SCT130
     FM032000 29008KT P6SM SCT130 BKN250
     FM040200 29016G24KT P6SM BKN070 OVC130
     FM040600 28013G20KT P6SM VCSH BKN040 BKN080=



000
FTUS46 KSEW 031120
TAFPAE
TAF
KPAE 031120Z 0312/0412 36006KT P6SM SCT130
     FM031800 23007KT P6SM SCT130 BKN250
     FM040000 33008KT P6SM VCSH BKN050 OVC110
     FM040600 36006KT P6SM VCSH BKN040 OVC080=



000
FTUS46 KSEW 030906 AAA
TAFSEA
TAF AMD
KSEA 030906Z 0309/0412 18004KT P6SM SCT120
     FM031200 19003KT P6SM SCT130 BKN250
     FM032000 24007KT P6SM SCT130 BKN250
     FM040200 24010G18KT P6SM VCSH BKN050 OVC110=



000
FTUS46 KSEW 030530
TAFCLM
TAF
KCLM 030530Z 0306/0406 26006KT P6SM SCT130
     FM031200 29005KT P6SM SCT130 BKN250
     FM032000 29008KT P6SM SCT130 BKN250
     FM040200 29016G24KT P6SM BKN070 OVC130=



000
FTUS46 KSEW 030530
TAFBFI
TAF
KBFI 030530Z 0306/0406 13007KT P6SM SCT130
     FM031200 16003KT P6SM SCT130 BKN250
     FM032000 23006KT P6SM SCT130 BKN250
     FM040200 23008KT P6SM VCSH BKN050 OVC110=



000
FTUS46 KSEW 030530
TAFHQM
TAF
KHQM 030530Z 0306/0406 22004KT 5SM BR SCT006
     FM030700 22006KT 5SM BR OVC006
     FM031500 22006KT 3SM BR OVC004
     FM031800 22007KT P6SM BKN015 BKN050=



000
FTUS46 KSEW 030530
TAFPAE
TAF
KPAE 030530Z 0306/0406 36006KT P6SM SCT130
     FM031200 19005KT P6SM SCT130 BKN250
     FM032000 23007KT P6SM SCT130 BKN250
     FM040200 32007KT P6SM VCSH BKN050 OVC110=



000
FTUS46 KSEW 030530
TAFSEA
TAF
KSEA 030530Z 0306/0412 15007KT P6SM SCT130
     FM031200 19003KT P6SM SCT130 BKN250
     FM032000 24007KT P6SM SCT130 BKN250
     FM040200 24010G18KT P6SM VCSH BKN050 OVC110=



000
FTUS46 KSEW 030530
TAFBLI
TAF
KBLI 030530Z 0306/0406 17005KT P6SM SCT130
     FM031200 17005KT P6SM SCT130 BKN250
     FM032000 19007KT P6SM SCT130 BKN250
     FM040200 19008KT P6SM BKN070 OVC130=



000
FTUS46 KSEW 030530
TAFOLM
TAF
KOLM 030530Z 0306/0406 20006KT P6SM SCT130
     FM031200 20004KT P6SM SCT130 BKN250
     FM032000 26007KT P6SM SCT130 BKN250
     FM040200 27010G18KT P6SM VCSH BKN050 OVC110=



000
FTUS46 KSEW 030310 AAA
TAFSEA
TAF AMD
KSEA 030310Z 0303/0406 23007G16KT P6SM FEW050 SCT120 SCT250
     FM030500 22008KT P6SM SCT070 BKN120
     FM031200 18006KT P6SM SCT012 BKN070
     FM031800 22006KT P6SM SCT025 BKN050=



000
FTUS46 KSEW 022320
TAFHQM
TAF
KHQM 022320Z 0300/0324 24015KT 6SM HZ SCT060 SCT120
     FM030600 21006KT P6SM BKN015 BKN080
     FM031200 18006KT P6SM OVC012
     FM031800 22007KT P6SM BKN015 BKN050=



000
FTUS46 KSEW 022320
TAFBFI
TAF
KBFI 022320Z 0300/0324 VRB04KT P6SM SCT070 SCT120
     FM030400 22006KT P6SM SCT070 BKN120
     FM031200 16006KT P6SM SCT015 BKN070
     FM031800 20006KT P6SM SCT025 BKN050=



000
FTUS46 KSEW 022320
TAFBLI
TAF
KBLI 022320Z 0300/0324 VRB04KT P6SM SCT070 SCT120
     FM030600 22008KT P6SM SCT070 BKN120
     FM031200 18008KT P6SM SCT015 BKN070
     FM031800 22006KT P6SM SCT025 BKN050=



000
FTUS46 KSEW 022320
TAFCLM
TAF
KCLM 022320Z 0300/0324 VRB04KT P6SM SCT060 BKN100
     FM030300 28008KT P6SM SCT050 BKN100
     FM031000 28006KT P6SM SCT012 BKN070
     FM031800 28006KT P6SM SCT025 BKN050=



000
FTUS46 KSEW 022320
TAFSEA
TAF
KSEA 022320Z 0300/0406 25005KT P6SM SCT070 SCT120
     FM030400 22008KT P6SM SCT070 BKN120
     FM031200 18006KT P6SM SCT012 BKN070
     FM031800 22006KT P6SM SCT025 BKN050=



000
FTUS46 KSEW 022320
TAFOLM
TAF
KOLM 022320Z 0300/0324 21010KT P6SM SCT060 BKN100
     FM031200 21006KT P6SM SCT012 BKN060
     FM031800 21006KT P6SM SCT025 BKN050=



000
FTUS46 KSEW 022320
TAFPAE
TAF
KPAE 022320Z 0300/0324 24007KT P6SM SCT070 SCT120
     FM030400 22007KT P6SM SCT070 BKN120
     FM031200 18007KT P6SM SCT012 BKN070
     FM031800 22007KT P6SM SCT025 BKN050=



000
FTUS46 KSEW 022102 AAA
TAFHQM
TAF AMD
KHQM 022102Z 0221/0318 24014KT 5SM HZ SCT120
     FM030600 21006KT P6SM BKN015 BKN080=



000
FTUS46 KSEW 021720
TAFCLM
TAF
KCLM 021720Z 0218/0318 08007KT P6SM SCT120
     FM022200 28008KT P6SM BKN120
     FM031200 26006KT P6SM BKN015 BKN080=



000
FTUS46 KSEW 021720
TAFPAE
TAF
KPAE 021720Z 0218/0318 10006KT P6SM SCT120
     FM030200 23007KT P6SM BKN120
     FM031200 18006KT P6SM SCT012 SCT080 BKN200=



000
FTUS46 KSEW 021720
TAFOLM
TAF
KOLM 021720Z 0218/0318 VRB04KT P6SM SCT120
     FM022200 23007KT P6SM BKN120
     FM030800 21006KT P6SM SCT015 SCT080 BKN200=



000
FTUS46 KSEW 021720
TAFBLI
TAF
KBLI 021720Z 0218/0318 02005KT P6SM SKC
     FM030200 23007KT P6SM BKN120
     FM031200 18008KT P6SM SCT015 SCT080 BKN200=



000
FTUS46 KSEW 021720
TAFHQM
TAF
KHQM 021720Z 0218/0318 08010KT P6SM SCT120
     FM022200 23010KT P6SM SCT015 BKN120
     FM030600 21006KT P6SM BKN015 BKN080=



000
FTUS46 KSEW 021720
TAFCLM
TAF
KCLM 021720Z 0218/0318 08007KT P6SM SCT120
     FM022200 28008KT P6SM BKN120
     FM031200 26006KT P6SM BKN015 BKN080=



000
FTUS46 KSEW 021720
TAFOLM
TAF
KOLM 021720Z 0218/0318 VRB04KT P6SM SCT120
     FM022200 23007KT P6SM BKN120
     FM030800 21006KT P6SM SCT015 SCT080 BKN200=



000
FTUS46 KSEW 021720
TAFSEA
TAF
KSEA 021720Z 0218/0324 VRB04KT P6SM SCT120
     FM030200 23007KT P6SM BKN120
     FM031200 18006KT P6SM SCT012 SCT080 BKN200=



000
FTUS46 KSEW 021720
TAFSEA
TAF
KSEA 021720Z 0218/0324 VRB04KT P6SM SCT120
     FM030200 23007KT P6SM BKN120
     FM031200 18006KT P6SM SCT012 SCT080 BKN200=



000
FTUS46 KSEW 021720
TAFBFI
TAF
KBFI 021720Z 0218/0318 VRB04KT P6SM SCT120
     FM030200 23007KT P6SM BKN120
     FM031200 16006KT P6SM SCT015 SCT080 BKN200=



000
FTUS46 KSEW 021720
TAFPAE
TAF
KPAE 021720Z 0218/0318 10006KT P6SM SCT120
     FM030200 23007KT P6SM BKN120
     FM031200 18006KT P6SM SCT012 SCT080 BKN200=



000
FTUS46 KSEW 021314 AAA
TAFSEA
TAF AMD
KSEA 021314Z 0213/0318 04004KT P6SM SKC
     FM022000 24010KT P6SM FEW130 SCT250
     FM030200 25007KT P6SM SCT130 BKN250
     FM030600 VRB03KT P6SM BKN130 OVC250=



000
FTUS46 KSEW 021237 AAA
TAFHQM
TAF AMD
KHQM 021237Z 0213/0312 07008KT P6SM SKC
     FM021500 12009KT P6SM SKC
     FM022000 19009KT P6SM SCT250
     FM022300 22012KT P6SM SCT250
     FM030300 20005KT P6SM VCFG SCT130 BKN250=



000
FTUS46 KSEW 021120
TAFOLM
TAF
KOLM 021120Z 0212/0312 VRB03KT P6SM SKC
     FM021600 12010KT P6SM SKC
     FM021900 20010KT P6SM SKC
     FM030000 26007KT P6SM SCT250
     FM030400 VRB03KT P6SM SCT100 BKN250=



000
FTUS46 KSEW 021120
TAFBLI
TAF
KBLI 021120Z 0212/0312 VRB03KT P6SM SKC
     FM022000 21007KT P6SM SKC
     FM030200 VRB03KT P6SM SCT250=



000
FTUS46 KSEW 021120
TAFHQM
TAF
KHQM 021120Z 0212/0312 VRB03KT P6SM SKC
     FM021500 12009KT P6SM SKC
     FM022100 22012KT P6SM SCT250
     FM030300 20005KT P6SM BKN250=



000
FTUS46 KSEW 021120
TAFPAE
TAF
KPAE 021120Z 0212/0312 VRB03KT P6SM SKC
     FM021600 16009KT P6SM SKC
     FM022100 20009KT P6SM FEW250
     FM030300 VRB03KT P6SM SCT250=



000
FTUS46 KSEW 021120
TAFCLM
TAF
KCLM 021120Z 0212/0312 VRB03KT P6SM SKC
     FM021700 09005KT P6SM SKC
     FM030000 30006KT P6SM SCT250
     FM030400 VRB03KT P6SM SCT250=



000
FTUS46 KSEW 021120
TAFSEA
TAF
KSEA 021120Z 0212/0318 VRB03KT P6SM SKC
     FM021400 17007KT P6SM SKC
     FM021700 24010KT P6SM SKC
     FM030200 25007KT P6SM SCT250
     FM030600 VRB03KT P6SM OVC250=



000
FTUS46 KSEW 021120
TAFBFI
TAF
KBFI 021120Z 0212/0312 VRB03KT P6SM SKC
     FM021800 24009KT P6SM SKC
     FM030400 VRB03KT P6SM SCT250=



000
FTUS46 KSEW 020856 AAA
TAFSEA
TAF AMD
KSEA 020856Z 0209/0312 07009KT P6SM SKC
     FM022000 25010KT P6SM SKC
     FM030200 27007KT P6SM SKC
     FM030600 20006KT P6SM SCT250=



000
FTUS46 KSEW 020856 AAA
TAFSEA
TAF AMD
KSEA 020856Z 0209/0312 07009KT P6SM SKC
     FM022000 25010KT P6SM SKC
     FM030200 27007KT P6SM SKC
     FM030600 20006KT P6SM SCT250=



000
FTUS46 KSEW 020520
TAFOLM
TAF
KOLM 020520Z 0206/0306 04006KT P6SM SKC
     FM020800 VRB03KT P6SM SKC
     FM021700 14010KT P6SM SKC
     FM022200 25006KT P6SM SKC
     FM030400 VRB03KT P6SM SKC=



000
FTUS46 KSEW 020520
TAFCLM
TAF
KCLM 020520Z 0206/0306 20005KT P6SM SKC
     FM021200 VRB03KT P6SM SKC
     FM021700 09006KT P6SM SKC
     FM022300 30006KT P6SM SCT250=



000
FTUS46 KSEW 020520
TAFSEA
TAF
KSEA 020520Z 0206/0312 03009KT P6SM SKC
     FM022000 25010KT P6SM SKC
     FM030400 27007KT P6SM SKC=



000
FTUS46 KSEW 020520
TAFPAE
TAF
KPAE 020520Z 0206/0306 VRB03KT P6SM SKC
     FM021600 17009KT P6SM SKC
     FM022100 22008KT P6SM SKC
     FM030300 VRB03KT P6SM SKC=



000
FTUS46 KSEW 020520
TAFSEA
TAF
KSEA 020520Z 0206/0312 03009KT P6SM SKC
     FM022000 25010KT P6SM SKC
     FM030400 27007KT P6SM SKC=



000
FTUS46 KSEW 020520
TAFHQM
TAF
KHQM 020520Z 0206/0306 06006KT P6SM SKC
     FM021400 13006KT P6SM SKC
     FM022000 19010KT P6SM SKC
     FM030300 21005KT P6SM BKN250=



000
FTUS46 KSEW 020520
TAFPAE
TAF
KPAE 020520Z 0206/0306 VRB03KT P6SM SKC
     FM021600 17009KT P6SM SKC
     FM022100 22008KT P6SM SKC
     FM030300 VRB03KT P6SM SKC=



000
FTUS46 KSEW 020520
TAFBFI
TAF
KBFI 020520Z 0206/0306 VRB03KT P6SM SKC
     FM021900 24009KT P6SM SKC
     FM030400 VRB03KT P6SM FEW250=



000
FTUS46 KSEW 020520
TAFOLM
TAF
KOLM 020520Z 0206/0306 04006KT P6SM SKC
     FM020800 VRB03KT P6SM SKC
     FM021700 14010KT P6SM SKC
     FM022200 25006KT P6SM SKC
     FM030400 VRB03KT P6SM SKC=



000
FTUS46 KSEW 020520
TAFCLM
TAF
KCLM 020520Z 0206/0306 20005KT P6SM SKC
     FM021200 VRB03KT P6SM SKC
     FM021700 09006KT P6SM SKC
     FM022300 30006KT P6SM SCT250=



000
FTUS46 KSEW 020520
TAFBLI
TAF
KBLI 020520Z 0206/0306 VRB03KT P6SM SKC
     FM022100 21007KT P6SM SKC
     FM030200 VRB03KT P6SM SKC=



000
FTUS46 KSEW 020520
TAFHQM
TAF
KHQM 020520Z 0206/0306 06006KT P6SM SKC
     FM021400 13006KT P6SM SKC
     FM022000 19010KT P6SM SKC
     FM030300 21005KT P6SM BKN250=



000
FTUS46 KSEW 020520
TAFBFI
TAF
KBFI 020520Z 0206/0306 VRB03KT P6SM SKC
     FM021900 24009KT P6SM SKC
     FM030400 VRB03KT P6SM FEW250=



000
FTUS46 KSEW 020520
TAFBLI
TAF
KBLI 020520Z 0206/0306 VRB03KT P6SM SKC
     FM022100 21007KT P6SM SKC
     FM030200 VRB03KT P6SM SKC=



000
FTUS46 KSEW 020305 AAA
TAFSEA
TAF AMD
KSEA 020305Z 0203/0306 35009KT P6SM SKC
     FM020700 04008KT P6SM SKC
     FM022000 32006KT P6SM SKC
     FM030400 24006KT P6SM SKC=



000
FTUS46 KSEW 012335
TAFBFI
TAF
KBFI 012335Z 0200/0224 33008KT P6SM SKC
     FM020500 VRB03KT P6SM SKC=



000
FTUS46 KSEW 012335
TAFPAE
TAF
KPAE 012335Z 0200/0224 35008KT P6SM SKC
     FM020600 VRB03KT P6SM SKC
     FM022100 33006KT P6SM SKC=



000
FTUS46 KSEW 012335
TAFBLI
TAF
KBLI 012335Z 0200/0224 30006KT P6SM SKC
     FM020400 VRB03KT P6SM SKC=



000
FTUS46 KSEW 012335
TAFCLM
TAF
KCLM 012335Z 0200/0224 08006KT P6SM SKC
     FM021800 VRB03KT P6SM SKC=



000
FTUS46 KSEW 012335
TAFHQM
TAF
KHQM 012335Z 0200/0224 08008KT P6SM SKC
     FM021400 13006KT P6SM SKC
     FM022000 19006KT P6SM SKC=



000
FTUS46 KSEW 012335
TAFOLM
TAF
KOLM 012335Z 0200/0224 04008KT P6SM SKC
     FM020400 VRB03KT P6SM SKC=



000
FTUS46 KSEW 012335
TAFSEA
TAF
KSEA 012335Z 0200/0306 35012KT P6SM SKC
     FM020700 04008KT P6SM SKC
     FM022000 32006KT P6SM SKC
     FM030400 24006KT P6SM SKC=



    US Dept of Commerce
    National Oceanic and Atmospheric Administration
    National Weather Service
    1325 East West Highway
    Silver Spring, MD 20910
    Page Author: NWS Internet Services Team
Disclaimer
Information Quality
Credits
Glossary
Privacy Policy
Freedom of Information Act (FOIA)
About Us
Career Opportunities